createdAt,value
2023-02-03T00:00:22.947Z,1018.9
2023-02-03T00:01:22.941Z,1019
2023-02-03T00:03:23.002Z,1018.9
2023-02-03T00:04:22.930Z,1019
2023-02-03T00:05:22.931Z,1019
2023-02-03T00:06:22.925Z,1019
2023-02-03T00:08:22.928Z,1019
2023-02-03T00:09:22.921Z,1019
2023-02-03T00:10:22.994Z,1018.9
2023-02-03T00:11:22.929Z,1018.9
2023-02-03T00:13:22.927Z,1018.9
2023-02-03T00:15:22.928Z,1018.9
2023-02-03T00:16:23.009Z,1018.8
2023-02-03T00:17:22.925Z,1018.9
2023-02-03T00:19:22.951Z,1018.8
2023-02-03T00:20:22.950Z,1018.8
2023-02-03T00:21:23.109Z,1018.7
2023-02-03T00:22:22.933Z,1018.8
2023-02-03T00:23:22.918Z,1018.7
2023-02-03T00:24:22.928Z,1018.8
2023-02-03T00:25:22.924Z,1018.8
2023-02-03T00:26:22.920Z,1018.8
2023-02-03T00:27:22.931Z,1018.7
2023-02-03T00:28:22.945Z,1018.7
2023-02-03T00:29:22.924Z,1018.7
2023-02-03T00:30:22.938Z,1018.7
2023-02-03T00:31:23.146Z,1018.7
2023-02-03T00:33:22.945Z,1018.7
2023-02-03T00:35:22.926Z,1018.7
2023-02-03T00:36:23.344Z,1018.7
2023-02-03T00:38:22.929Z,1018.8
2023-02-03T00:39:22.932Z,1018.9
2023-02-03T00:41:22.939Z,1018.9
2023-02-03T00:42:22.923Z,1018.9
2023-02-03T00:43:22.925Z,1018.9
2023-02-03T00:45:22.928Z,1018.9
2023-02-03T00:46:22.924Z,1019
2023-02-03T00:47:22.923Z,1018.9
2023-02-03T00:50:22.938Z,1018.9
2023-02-03T00:51:22.934Z,1018.9
2023-02-03T00:52:22.936Z,1018.9
2023-02-03T00:53:22.945Z,1019
2023-02-03T00:54:22.944Z,1019
2023-02-03T00:55:22.930Z,1019
2023-02-03T00:56:22.939Z,1019.1
2023-02-03T00:57:22.925Z,1019
2023-02-03T00:58:22.936Z,1019.1
2023-02-03T00:59:22.928Z,1019.2
2023-02-03T01:00:22.934Z,1019.2
2023-02-03T01:01:23.036Z,1019.2
2023-02-03T01:02:22.999Z,1019.3
2023-02-03T01:03:22.950Z,1019.2
2023-02-03T01:06:22.929Z,1019.3
2023-02-03T01:07:22.915Z,1019.3
2023-02-03T01:08:22.928Z,1019.4
2023-02-03T01:09:22.930Z,1019.4
2023-02-03T01:10:22.925Z,1019.5
2023-02-03T01:11:22.924Z,1019.5
2023-02-03T01:12:22.943Z,1019.5
2023-02-03T01:13:22.939Z,1019.5
2023-02-03T01:14:22.931Z,1019.5
2023-02-03T01:15:22.948Z,1019.4
2023-02-03T01:16:22.979Z,1019.4
2023-02-03T01:17:22.928Z,1019.4
2023-02-03T01:18:22.927Z,1019.4
2023-02-03T01:19:22.923Z,1019.4
2023-02-03T01:21:22.923Z,1019.3
2023-02-03T01:22:22.932Z,1019.3
2023-02-03T01:23:23.008Z,1019.3
2023-02-03T01:24:22.925Z,1019.3
2023-02-03T01:25:23.099Z,1019.4
2023-02-03T01:27:22.927Z,1019.4
2023-02-03T01:28:22.955Z,1019.4
2023-02-03T01:29:22.923Z,1019.3
2023-02-03T01:30:23.246Z,1019.3
2023-02-03T01:31:23.123Z,1019.5
2023-02-03T01:32:22.934Z,1019.4
2023-02-03T01:33:22.924Z,1019.4
2023-02-03T01:34:22.926Z,1019.4
2023-02-03T01:35:22.923Z,1019.4
2023-02-03T01:36:22.931Z,1019.5
2023-02-03T01:37:22.936Z,1019.4
2023-02-03T01:38:22.928Z,1019.4
2023-02-03T01:40:22.925Z,1019.4
2023-02-03T01:41:22.920Z,1019.4
2023-02-03T01:42:22.932Z,1019.4
2023-02-03T01:43:22.929Z,1019.3
2023-02-03T01:44:22.938Z,1019.2
2023-02-03T01:45:22.928Z,1019.2
2023-02-03T01:46:23.013Z,1019.2
2023-02-03T01:47:22.921Z,1019.3
2023-02-03T01:48:22.925Z,1019.3
2023-02-03T01:49:22.922Z,1019.2
2023-02-03T01:50:22.952Z,1019.4
2023-02-03T01:51:22.953Z,1019.4
2023-02-03T01:52:22.920Z,1019.3
2023-02-03T01:53:22.920Z,1019.3
2023-02-03T01:54:22.932Z,1019.3
2023-02-03T01:55:22.918Z,1019.3
2023-02-03T01:56:22.924Z,1019.4
2023-02-03T01:57:22.926Z,1019.4
2023-02-03T01:58:22.927Z,1019.4
2023-02-03T01:59:22.924Z,1019.4
2023-02-03T02:03:22.945Z,1019.2
2023-02-03T02:04:22.916Z,1019.2
2023-02-03T02:05:22.926Z,1019.1
2023-02-03T02:06:22.925Z,1019.1
2023-02-03T02:07:22.928Z,1019.1
2023-02-03T02:09:22.927Z,1019
2023-02-03T02:10:22.941Z,1019
2023-02-03T02:11:22.922Z,1019
2023-02-03T02:12:22.924Z,1019
2023-02-03T02:13:22.929Z,1018.9
2023-02-03T02:14:22.918Z,1018.9
2023-02-03T02:15:22.930Z,1018.8
2023-02-03T02:16:22.935Z,1018.9
2023-02-03T02:18:22.931Z,1018.8
2023-02-03T02:19:22.927Z,1018.8
2023-02-03T02:20:23.037Z,1018.8
2023-02-03T02:23:23.073Z,1018.7
2023-02-03T02:24:22.944Z,1018.7
2023-02-03T02:25:22.932Z,1018.7
2023-02-03T02:27:22.941Z,1018.8
2023-02-03T02:28:22.925Z,1018.8
2023-02-03T02:29:22.933Z,1018.7
2023-02-03T02:30:22.928Z,1018.7
2023-02-03T02:31:23.127Z,1018.6
2023-02-03T02:32:22.939Z,1018.6
2023-02-03T02:33:22.934Z,1018.6
2023-02-03T02:34:22.929Z,1018.6
2023-02-03T02:36:22.927Z,1018.6
2023-02-03T02:37:22.924Z,1018.6
2023-02-03T02:38:22.939Z,1018.6
2023-02-03T02:40:22.931Z,1018.8
2023-02-03T02:41:22.933Z,1018.7
2023-02-03T02:43:22.921Z,1018.5
2023-02-03T02:44:22.933Z,1018.5
2023-02-03T02:45:22.932Z,1018.5
2023-02-03T02:46:23.122Z,1018.3
2023-02-03T02:47:23.079Z,1018.4
2023-02-03T02:48:22.926Z,1018.4
2023-02-03T02:49:22.931Z,1018.4
2023-02-03T02:51:22.925Z,1018.4
2023-02-03T02:52:22.925Z,1018.4
2023-02-03T02:54:22.928Z,1018.2
2023-02-03T02:55:22.933Z,1018.3
2023-02-03T02:56:22.940Z,1018.4
2023-02-03T02:58:22.933Z,1018.4
2023-02-03T03:02:22.959Z,1018.6
2023-02-03T03:03:22.934Z,1018.7
2023-02-03T03:04:23.017Z,1018.7
2023-02-03T03:05:22.923Z,1018.7
2023-02-03T03:06:22.935Z,1018.8
2023-02-03T03:07:22.938Z,1018.9
2023-02-03T03:08:22.946Z,1018.8
2023-02-03T03:10:22.927Z,1018.8
2023-02-03T03:11:22.932Z,1018.8
2023-02-03T03:12:22.935Z,1018.8
2023-02-03T03:13:22.933Z,1018.8
2023-02-03T03:15:22.927Z,1018.6
2023-02-03T03:16:23.033Z,1018.7
2023-02-03T03:17:22.933Z,1018.6
2023-02-03T03:18:22.926Z,1018.6
2023-02-03T03:20:22.926Z,1018.7
2023-02-03T03:22:22.930Z,1018.6
2023-02-03T03:23:22.933Z,1018.7
2023-02-03T03:24:22.959Z,1018.7
2023-02-03T03:25:22.929Z,1018.7
2023-02-03T03:26:22.941Z,1018.6
2023-02-03T03:27:22.960Z,1018.6
2023-02-03T03:28:22.940Z,1018.6
2023-02-03T03:29:22.928Z,1018.7
2023-02-03T03:31:23.083Z,1018.5
2023-02-03T03:32:22.934Z,1018.6
2023-02-03T03:33:22.940Z,1018.6
2023-02-03T03:35:22.924Z,1018.6
2023-02-03T03:36:22.928Z,1018.6
2023-02-03T03:38:22.940Z,1018.6
2023-02-03T03:39:22.970Z,1018.5
2023-02-03T03:40:22.925Z,1018.5
2023-02-03T03:41:22.930Z,1018.5
2023-02-03T03:42:22.937Z,1018.5
2023-02-03T03:44:22.929Z,1018.5
2023-02-03T03:45:22.927Z,1018.6
2023-02-03T03:46:22.943Z,1018.6
2023-02-03T03:47:22.932Z,1018.6
2023-02-03T03:48:22.926Z,1018.7
2023-02-03T03:49:22.924Z,1018.7
2023-02-03T03:50:22.930Z,1018.7
2023-02-03T03:51:22.926Z,1018.7
2023-02-03T03:52:22.929Z,1018.7
2023-02-03T03:53:22.941Z,1018.7
2023-02-03T03:54:22.968Z,1018.6
2023-02-03T03:56:22.934Z,1018.6
2023-02-03T03:57:22.944Z,1018.7
2023-02-03T03:58:22.960Z,1018.7
2023-02-03T03:59:22.975Z,1018.7
2023-02-03T04:00:22.945Z,1018.7
2023-02-03T04:01:23.106Z,1018.7
2023-02-03T04:02:23.378Z,1018.7
2023-02-03T04:03:23.064Z,1018.7
2023-02-03T04:04:22.928Z,1018.7
2023-02-03T04:05:22.942Z,1018.7
2023-02-03T04:06:22.963Z,1018.7
2023-02-03T04:07:22.971Z,1018.7
2023-02-03T04:08:22.962Z,1018.7
2023-02-03T04:09:22.952Z,1018.7
2023-02-03T04:10:22.963Z,1018.7
2023-02-03T04:11:22.975Z,1018.6
2023-02-03T04:12:22.962Z,1018.6
2023-02-03T04:13:22.933Z,1018.6
2023-02-03T04:14:22.961Z,1018.6
2023-02-03T04:15:22.979Z,1018.6
2023-02-03T04:16:23.048Z,1018.5
2023-02-03T04:17:22.999Z,1018.5
2023-02-03T04:18:23.086Z,1018.5
2023-02-03T04:19:22.932Z,1018.5
2023-02-03T04:20:22.954Z,1018.5
2023-02-03T04:21:22.981Z,1018.6
2023-02-03T04:22:22.928Z,1018.6
2023-02-03T04:23:22.932Z,1018.7
2023-02-03T04:24:22.932Z,1018.8
2023-02-03T04:27:22.960Z,1018.8
2023-02-03T04:29:22.967Z,1018.6
2023-02-03T04:30:22.968Z,1018.6
2023-02-03T04:31:23.166Z,1018.6
2023-02-03T04:32:22.934Z,1018.6
2023-02-03T04:33:22.963Z,1018.7
2023-02-03T04:34:22.974Z,1018.6
2023-02-03T04:35:22.925Z,1018.7
2023-02-03T04:36:22.967Z,1018.7
2023-02-03T04:37:22.938Z,1018.6
2023-02-03T04:38:22.947Z,1018.6
2023-02-03T04:39:22.968Z,1018.5
2023-02-03T04:40:22.922Z,1018.6
2023-02-03T04:41:22.932Z,1018.6
2023-02-03T04:42:22.961Z,1018.6
2023-02-03T04:43:22.932Z,1018.5
2023-02-03T04:44:22.975Z,1018.5
2023-02-03T04:45:23.115Z,1018.5
2023-02-03T04:46:22.965Z,1018.4
2023-02-03T04:47:23.031Z,1018.3
2023-02-03T04:48:23.014Z,1018.3
2023-02-03T04:49:22.978Z,1018.3
2023-02-03T04:50:22.931Z,1018.4
2023-02-03T04:51:22.941Z,1018.4
2023-02-03T04:53:22.967Z,1018.3
2023-02-03T04:54:22.928Z,1018.2
2023-02-03T04:55:22.932Z,1018.2
2023-02-03T04:56:22.941Z,1018.2
2023-02-03T04:58:22.929Z,1018.2
2023-02-03T04:59:22.939Z,1018.2
2023-02-03T05:01:23.016Z,1018.2
2023-02-03T05:02:22.933Z,1018.2
2023-02-03T05:03:25.061Z,1018.2
2023-02-03T05:04:22.932Z,1018.2
2023-02-03T05:06:22.951Z,1018.2
2023-02-03T05:07:22.930Z,1018.2
2023-02-03T05:08:23.077Z,1018.3
2023-02-03T05:09:22.931Z,1018.2
2023-02-03T05:10:22.937Z,1018.2
2023-02-03T05:11:22.988Z,1018.2
2023-02-03T05:12:22.934Z,1018.2
2023-02-03T05:13:22.939Z,1018.2
2023-02-03T05:14:22.937Z,1018.2
2023-02-03T05:15:22.934Z,1018.2
2023-02-03T05:16:23.041Z,1018.2
2023-02-03T05:17:22.939Z,1018.2
2023-02-03T05:18:22.950Z,1018.2
2023-02-03T05:19:22.969Z,1018.2
2023-02-03T05:20:22.954Z,1018.3
2023-02-03T05:21:22.994Z,1018.4
2023-02-03T05:22:22.934Z,1018.3
2023-02-03T05:23:22.988Z,1018.3
2023-02-03T05:24:22.937Z,1018.3
2023-02-03T05:25:22.930Z,1018.3
2023-02-03T05:27:22.954Z,1018.2
2023-02-03T05:28:22.958Z,1018.2
2023-02-03T05:29:22.940Z,1018.2
2023-02-03T05:30:22.943Z,1018.2
2023-02-03T05:31:23.033Z,1018.2
2023-02-03T05:32:22.981Z,1018.2
2023-02-03T05:33:22.935Z,1018.1
2023-02-03T05:34:22.935Z,1018.1
2023-02-03T05:35:22.936Z,1018.1
2023-02-03T05:36:22.938Z,1018
2023-02-03T05:37:22.933Z,1018.1
2023-02-03T05:38:22.932Z,1018.1
2023-02-03T05:39:22.940Z,1018.1
2023-02-03T05:40:22.934Z,1018.1
2023-02-03T05:41:22.951Z,1018.1
2023-02-03T05:43:22.933Z,1018.1
2023-02-03T05:44:22.926Z,1018.2
2023-02-03T05:45:22.952Z,1018.2
2023-02-03T05:46:22.935Z,1018.2
2023-02-03T05:48:22.929Z,1018.2
2023-02-03T05:49:22.942Z,1018.2
2023-02-03T05:50:22.934Z,1018.2
2023-02-03T05:51:22.946Z,1018.1
2023-02-03T05:52:22.935Z,1018.1
2023-02-03T05:53:22.937Z,1018.1
2023-02-03T05:54:22.951Z,1018.3
2023-02-03T05:55:22.930Z,1018.3
2023-02-03T05:56:22.940Z,1018.3
2023-02-03T05:57:22.937Z,1018.2
2023-02-03T05:58:22.933Z,1018
2023-02-03T06:00:22.937Z,1018.2
2023-02-03T06:01:22.940Z,1018.3
2023-02-03T06:02:22.938Z,1018.3
2023-02-03T06:03:23.016Z,1018.3
2023-02-03T06:04:23.040Z,1018.3
2023-02-03T06:05:22.929Z,1018.4
2023-02-03T06:07:22.938Z,1018.3
2023-02-03T06:08:22.935Z,1018.3
2023-02-03T06:09:22.953Z,1018.4
2023-02-03T06:10:22.933Z,1018.4
2023-02-03T06:11:22.932Z,1018.4
2023-02-03T06:12:22.932Z,1018.4
2023-02-03T06:13:22.927Z,1018.3
2023-02-03T06:14:22.936Z,1018.3
2023-02-03T06:15:22.928Z,1018.3
2023-02-03T06:16:23.000Z,1018.2
2023-02-03T06:17:22.931Z,1018.2
2023-02-03T06:20:22.929Z,1018.3
2023-02-03T06:21:22.929Z,1018.3
2023-02-03T06:22:22.953Z,1018.3
2023-02-03T06:23:22.938Z,1018.3
2023-02-03T06:24:23.326Z,1018.3
2023-02-03T06:25:22.931Z,1018.2
2023-02-03T06:26:22.934Z,1018.1
2023-02-03T06:27:22.942Z,1018.2
2023-02-03T06:28:22.993Z,1018.3
2023-02-03T06:29:22.930Z,1018.3
2023-02-03T06:30:22.950Z,1018.3
2023-02-03T06:31:23.163Z,1018.2
2023-02-03T06:32:22.937Z,1018.3
2023-02-03T06:33:22.929Z,1018.3
2023-02-03T06:34:22.931Z,1018.3
2023-02-03T06:35:22.934Z,1018.2
2023-02-03T06:36:22.932Z,1018.2
2023-02-03T06:37:24.779Z,1018.2
2023-02-03T06:38:22.941Z,1018.2
2023-02-03T06:39:22.923Z,1018.3
2023-02-03T06:40:22.930Z,1018.3
2023-02-03T06:41:22.937Z,1018.3
2023-02-03T06:42:22.931Z,1018.3
2023-02-03T06:43:22.945Z,1018.3
2023-02-03T06:44:22.931Z,1018.3
2023-02-03T06:45:22.933Z,1018.3
2023-02-03T06:46:23.017Z,1018.3
2023-02-03T06:47:22.941Z,1018.2
2023-02-03T06:48:22.979Z,1018.3
2023-02-03T06:49:22.935Z,1018.3
2023-02-03T06:51:22.936Z,1018.4
2023-02-03T06:52:22.934Z,1018.4
2023-02-03T06:53:22.934Z,1018.4
2023-02-03T06:54:22.933Z,1018.4
2023-02-03T06:55:22.931Z,1018.4
2023-02-03T06:56:22.940Z,1018.4
2023-02-03T06:57:22.947Z,1018.4
2023-02-03T06:58:22.955Z,1018.5
2023-02-03T06:59:22.931Z,1018.4
2023-02-03T07:01:23.011Z,1018.4
2023-02-03T07:02:22.997Z,1018.4
2023-02-03T07:03:22.936Z,1018.4
2023-02-03T07:04:22.941Z,1018.5
2023-02-03T07:05:23.002Z,1018.4
2023-02-03T07:06:22.939Z,1018.4
2023-02-03T07:07:22.935Z,1018.4
2023-02-03T07:09:22.941Z,1018.3
2023-02-03T07:10:22.962Z,1018.4
2023-02-03T07:11:22.941Z,1018.3
2023-02-03T07:12:22.944Z,1018.4
2023-02-03T07:13:22.929Z,1018.4
2023-02-03T07:14:22.960Z,1018.5
2023-02-03T07:15:22.931Z,1018.5
2023-02-03T07:16:22.989Z,1018.6
2023-02-03T07:17:22.940Z,1018.6
2023-02-03T07:18:43.684Z,1018.6
2023-02-03T07:19:22.932Z,1018.5
2023-02-03T07:20:22.940Z,1018.5
2023-02-03T07:22:22.933Z,1018.5
2023-02-03T07:23:22.969Z,1018.5
2023-02-03T07:24:22.930Z,1018.5
2023-02-03T07:25:22.943Z,1018.5
2023-02-03T07:26:22.946Z,1018.5
2023-02-03T07:27:22.965Z,1018.5
2023-02-03T07:28:22.934Z,1018.5
2023-02-03T07:29:22.943Z,1018.5
2023-02-03T07:30:22.962Z,1018.5
2023-02-03T07:31:23.160Z,1018.5
2023-02-03T07:32:22.959Z,1018.5
2023-02-03T07:33:22.932Z,1018.5
2023-02-03T07:34:22.941Z,1018.5
2023-02-03T07:35:22.944Z,1018.6
2023-02-03T07:36:22.937Z,1018.5
2023-02-03T07:37:22.940Z,1018.5
2023-02-03T07:38:22.936Z,1018.5
2023-02-03T07:39:22.934Z,1018.5
2023-02-03T07:40:22.957Z,1018.5
2023-02-03T07:41:22.940Z,1018.5
2023-02-03T07:43:22.933Z,1018.6
2023-02-03T07:44:22.937Z,1018.6
2023-02-03T07:45:22.938Z,1018.6
2023-02-03T07:46:22.978Z,1018.6
2023-02-03T07:47:22.933Z,1018.6
2023-02-03T07:48:22.939Z,1018.7
2023-02-03T07:49:22.933Z,1018.6
2023-02-03T07:50:22.937Z,1018.6
2023-02-03T07:51:22.931Z,1018.6
2023-02-03T07:52:22.930Z,1018.6
2023-02-03T07:53:22.945Z,1018.6
2023-02-03T07:54:22.933Z,1018.6
2023-02-03T07:55:22.935Z,1018.5
2023-02-03T07:56:22.948Z,1018.5
2023-02-03T07:57:22.936Z,1018.5
2023-02-03T07:58:22.934Z,1018.5
2023-02-03T07:59:22.933Z,1018.5
2023-02-03T08:00:22.988Z,1018.6
2023-02-03T08:01:22.964Z,1018.7
2023-02-03T08:02:22.933Z,1018.6
2023-02-03T08:04:22.948Z,1018.6
2023-02-03T08:05:22.938Z,1018.6
2023-02-03T08:06:22.945Z,1018.7
2023-02-03T08:07:22.928Z,1018.6
2023-02-03T08:09:22.938Z,1018.6
2023-02-03T08:10:22.945Z,1018.6
2023-02-03T08:11:22.934Z,1018.6
2023-02-03T08:12:22.945Z,1018.7
2023-02-03T08:14:22.941Z,1018.7
2023-02-03T08:15:22.954Z,1018.7
2023-02-03T08:16:22.992Z,1018.7
2023-02-03T08:17:22.930Z,1018.6
2023-02-03T08:18:22.939Z,1018.7
2023-02-03T08:19:22.935Z,1018.8
2023-02-03T08:20:22.946Z,1018.7
2023-02-03T08:21:22.931Z,1018.8
2023-02-03T08:22:22.934Z,1018.7
2023-02-03T08:23:22.943Z,1018.7
2023-02-03T08:24:22.962Z,1018.7
2023-02-03T08:26:22.930Z,1018.8
2023-02-03T08:27:22.936Z,1018.8
2023-02-03T08:29:22.932Z,1018.7
2023-02-03T08:30:22.935Z,1018.7
2023-02-03T08:31:23.082Z,1018.6
2023-02-03T08:32:22.997Z,1018.6
2023-02-03T08:33:22.931Z,1018.6
2023-02-03T08:34:22.956Z,1018.6
2023-02-03T08:35:22.939Z,1018.6
2023-02-03T08:36:24.869Z,1018.7
2023-02-03T08:37:22.939Z,1018.7
2023-02-03T08:38:22.968Z,1018.6
2023-02-03T08:39:22.932Z,1018.6
2023-02-03T08:40:22.947Z,1018.6
2023-02-03T08:41:22.930Z,1018.6
2023-02-03T08:42:22.942Z,1018.8
2023-02-03T08:43:22.935Z,1018.7
2023-02-03T08:44:22.931Z,1018.8
2023-02-03T08:45:22.975Z,1018.8
2023-02-03T08:46:22.958Z,1018.8
2023-02-03T08:47:23.036Z,1018.7
2023-02-03T08:48:22.932Z,1018.8
2023-02-03T08:49:22.949Z,1018.7
2023-02-03T08:50:22.937Z,1018.7
2023-02-03T08:51:22.937Z,1018.8
2023-02-03T08:52:22.933Z,1018.8
2023-02-03T08:53:22.933Z,1018.7
2023-02-03T08:54:22.929Z,1018.7
2023-02-03T08:55:23.027Z,1018.7
2023-02-03T08:56:22.947Z,1018.7
2023-02-03T08:57:22.940Z,1018.7
2023-02-03T08:58:22.931Z,1018.7
2023-02-03T09:00:22.946Z,1018.7
2023-02-03T09:01:23.049Z,1018.8
2023-02-03T09:02:22.938Z,1018.8
2023-02-03T09:03:22.968Z,1018.8
2023-02-03T09:04:22.961Z,1018.7
2023-02-03T09:05:22.956Z,1018.8
2023-02-03T09:06:24.651Z,1018.8
2023-02-03T09:07:22.936Z,1018.8
2023-02-03T09:08:22.940Z,1018.8
2023-02-03T09:09:22.935Z,1018.8
2023-02-03T09:11:22.952Z,1018.8
2023-02-03T09:12:22.940Z,1018.8
2023-02-03T09:13:22.933Z,1018.8
2023-02-03T09:14:22.933Z,1018.8
2023-02-03T09:15:22.936Z,1018.9
2023-02-03T09:16:23.085Z,1018.9
2023-02-03T09:17:22.938Z,1018.9
2023-02-03T09:18:22.932Z,1018.9
2023-02-03T09:19:22.933Z,1018.9
2023-02-03T09:20:22.982Z,1018.9
2023-02-03T09:23:22.933Z,1018.9
2023-02-03T09:25:22.946Z,1019
2023-02-03T09:26:22.937Z,1018.9
2023-02-03T09:27:22.982Z,1019
2023-02-03T09:28:22.978Z,1018.9
2023-02-03T09:29:22.933Z,1019
2023-02-03T09:30:23.027Z,1018.9
2023-02-03T09:31:23.029Z,1019
2023-02-03T09:33:22.934Z,1019
2023-02-03T09:34:22.954Z,1019
2023-02-03T09:35:22.938Z,1018.9
2023-02-03T09:36:23.077Z,1019
2023-02-03T09:37:22.970Z,1019
2023-02-03T09:38:22.940Z,1019
2023-02-03T09:39:22.943Z,1018.9
2023-02-03T09:40:23.012Z,1019
2023-02-03T09:43:22.936Z,1019
2023-02-03T09:44:22.934Z,1019
2023-02-03T09:46:22.985Z,1018.9
2023-02-03T09:47:22.968Z,1018.9
2023-02-03T09:48:22.986Z,1018.9
2023-02-03T09:49:22.945Z,1019
2023-02-03T09:50:22.961Z,1018.9
2023-02-03T09:51:22.939Z,1018.9
2023-02-03T09:53:22.941Z,1018.9
2023-02-03T09:54:22.934Z,1018.9
2023-02-03T09:55:22.937Z,1018.9
2023-02-03T09:56:22.950Z,1018.8
2023-02-03T09:58:23.017Z,1018.9
2023-02-03T09:59:22.938Z,1018.8
2023-02-03T10:00:23.042Z,1018.8
2023-02-03T10:01:22.988Z,1018.9
2023-02-03T10:02:22.978Z,1018.9
2023-02-03T10:03:22.934Z,1018.9
2023-02-03T10:04:22.939Z,1018.9
2023-02-03T10:05:22.934Z,1018.9
2023-02-03T10:07:22.961Z,1019
2023-02-03T10:08:22.957Z,1018.9
2023-02-03T10:09:22.931Z,1018.9
2023-02-03T10:10:23.002Z,1018.9
2023-02-03T10:11:22.942Z,1018.9
2023-02-03T10:12:22.936Z,1019
2023-02-03T10:13:22.943Z,1019
2023-02-03T10:14:22.942Z,1019
2023-02-03T10:15:22.942Z,1019.1
2023-02-03T10:16:22.982Z,1019.1
2023-02-03T10:18:23.044Z,1019.1
2023-02-03T10:19:22.929Z,1019.1
2023-02-03T10:20:22.986Z,1019.1
2023-02-03T10:21:22.932Z,1019
2023-02-03T10:22:22.954Z,1019
2023-02-03T10:23:22.941Z,1019.1
2023-02-03T10:24:22.944Z,1019.2
2023-02-03T10:25:22.940Z,1019.2
2023-02-03T10:26:22.939Z,1019.2
2023-02-03T10:27:22.948Z,1019.2
2023-02-03T10:28:23.141Z,1019.1
2023-02-03T10:29:22.934Z,1019.2
2023-02-03T10:30:22.944Z,1019.2
2023-02-03T10:31:23.117Z,1019.2
2023-02-03T10:32:22.930Z,1019.2
2023-02-03T10:33:22.938Z,1019.3
2023-02-03T10:34:22.938Z,1019.3
2023-02-03T10:35:22.953Z,1019.3
2023-02-03T10:37:22.947Z,1019.2
2023-02-03T10:38:22.972Z,1019.3
2023-02-03T10:40:22.934Z,1019.2
2023-02-03T10:41:22.983Z,1019.2
2023-02-03T10:42:22.943Z,1019.2
2023-02-03T10:43:22.941Z,1019
2023-02-03T10:44:22.928Z,1019.1
2023-02-03T10:45:22.939Z,1019.1
2023-02-03T10:46:23.005Z,1019.1
2023-02-03T10:47:22.935Z,1019.1
2023-02-03T10:48:22.944Z,1019.1
2023-02-03T10:49:22.941Z,1019.1
2023-02-03T10:50:22.945Z,1019.1
2023-02-03T10:51:22.939Z,1019.1
2023-02-03T10:52:22.944Z,1019
2023-02-03T10:53:23.712Z,1019.1
2023-02-03T10:54:22.930Z,1019.1
2023-02-03T10:55:22.940Z,1019.1
2023-02-03T10:56:22.931Z,1019.1
2023-02-03T10:57:22.934Z,1019.1
2023-02-03T10:58:22.942Z,1019.1
2023-02-03T10:59:22.936Z,1019.1
2023-02-03T11:00:22.959Z,1019.2
2023-02-03T11:01:23.041Z,1019.1
2023-02-03T11:02:22.996Z,1019.2
2023-02-03T11:03:22.942Z,1019.1
2023-02-03T11:04:22.939Z,1019.2
2023-02-03T11:05:22.933Z,1019.1
2023-02-03T11:06:22.969Z,1019.1
2023-02-03T11:07:22.935Z,1019.2
2023-02-03T11:08:22.933Z,1019.1
2023-02-03T11:09:22.963Z,1019.2
2023-02-03T11:10:22.928Z,1019.1
2023-02-03T11:11:24.786Z,1019.2
2023-02-03T11:12:22.977Z,1019.1
2023-02-03T11:13:22.929Z,1019.2
2023-02-03T11:14:22.930Z,1019.1
2023-02-03T11:15:22.942Z,1019.2
2023-02-03T11:16:23.003Z,1019.2
2023-02-03T11:17:22.972Z,1019.3
2023-02-03T11:18:22.937Z,1019.2
2023-02-03T11:19:22.940Z,1019.2
2023-02-03T11:21:22.942Z,1019.3
2023-02-03T11:22:22.933Z,1019.2
2023-02-03T11:23:23.593Z,1019.2
2023-02-03T11:24:22.944Z,1019.2
2023-02-03T11:25:22.943Z,1019.3
2023-02-03T11:26:22.938Z,1019.3
2023-02-03T11:27:22.951Z,1019.4
2023-02-03T11:28:22.940Z,1019.3
2023-02-03T11:29:23.923Z,1019.4
2023-02-03T11:30:22.942Z,1019.3
2023-02-03T11:31:23.098Z,1019.4
2023-02-03T11:32:22.936Z,1019.4
2023-02-03T11:33:22.933Z,1019.3
2023-02-03T11:34:22.936Z,1019.3
2023-02-03T11:35:24.254Z,1019.4
2023-02-03T11:36:22.941Z,1019.3
2023-02-03T11:37:22.933Z,1019.3
2023-02-03T11:38:22.954Z,1019.4
2023-02-03T11:39:22.931Z,1019.3
2023-02-03T11:40:22.960Z,1019.2
2023-02-03T11:41:23.997Z,1019.3
2023-02-03T11:42:22.937Z,1019.2
2023-02-03T11:43:22.941Z,1019.3
2023-02-03T11:44:22.934Z,1019.3
2023-02-03T11:45:22.944Z,1019.3
2023-02-03T11:46:22.991Z,1019.3
2023-02-03T11:47:23.923Z,1019.3
2023-02-03T11:48:22.950Z,1019.3
2023-02-03T11:49:22.943Z,1019.3
2023-02-03T11:50:22.933Z,1019.4
2023-02-03T11:51:22.947Z,1019.4
2023-02-03T11:52:22.939Z,1019.4
2023-02-03T11:53:24.066Z,1019.3
2023-02-03T11:54:22.935Z,1019.3
2023-02-03T11:55:22.937Z,1019.4
2023-02-03T11:56:22.950Z,1019.3
2023-02-03T11:58:22.942Z,1019.2
2023-02-03T11:59:22.952Z,1019.3
2023-02-03T12:00:22.944Z,1019.3
2023-02-03T12:02:22.946Z,1019.3
2023-02-03T12:03:22.943Z,1019.3
2023-02-03T12:04:23.019Z,1019.3
2023-02-03T12:05:23.042Z,1019.3
2023-02-03T12:06:22.942Z,1019.3
2023-02-03T12:07:22.960Z,1019.4
2023-02-03T12:08:22.936Z,1019.4
2023-02-03T12:11:24.001Z,1019.4
2023-02-03T12:12:22.936Z,1019.4
2023-02-03T12:13:22.946Z,1019.3
2023-02-03T12:14:22.949Z,1019.4
2023-02-03T12:15:22.941Z,1019.4
2023-02-03T12:16:23.006Z,1019.4
2023-02-03T12:17:23.866Z,1019.4
2023-02-03T12:18:22.931Z,1019.6
2023-02-03T12:19:22.947Z,1019.5
2023-02-03T12:20:22.938Z,1019.6
2023-02-03T12:21:22.938Z,1019.6
2023-02-03T12:22:22.945Z,1019.6
2023-02-03T12:23:23.888Z,1019.6
2023-02-03T12:24:22.946Z,1019.6
2023-02-03T12:25:22.939Z,1019.6
2023-02-03T12:26:22.942Z,1019.5
2023-02-03T12:27:23.011Z,1019.5
2023-02-03T12:28:32.956Z,1019.5
2023-02-03T12:29:23.083Z,1019.5
2023-02-03T12:30:22.938Z,1019.5
2023-02-03T12:32:22.936Z,1019.4
2023-02-03T12:33:22.935Z,1019.5
2023-02-03T12:34:22.943Z,1019.4
2023-02-03T12:35:22.941Z,1019.4
2023-02-03T12:36:22.981Z,1019.4
2023-02-03T12:37:22.935Z,1019.4
2023-02-03T12:38:22.947Z,1019.4
2023-02-03T12:39:22.937Z,1019.5
2023-02-03T12:40:22.931Z,1019.4
2023-02-03T12:41:22.956Z,1019.5
2023-02-03T12:42:22.965Z,1019.4
2023-02-03T12:43:22.952Z,1019.4
2023-02-03T12:44:22.939Z,1019.4
2023-02-03T12:45:22.932Z,1019.4
2023-02-03T12:46:22.942Z,1019.5
2023-02-03T12:47:22.944Z,1019.5
2023-02-03T12:48:22.941Z,1019.6
2023-02-03T12:49:22.951Z,1019.6
2023-02-03T12:50:22.979Z,1019.5
2023-02-03T12:51:22.953Z,1019.5
2023-02-03T12:53:22.947Z,1019.5
2023-02-03T12:54:22.941Z,1019.4
2023-02-03T12:55:22.944Z,1019.5
2023-02-03T12:56:22.936Z,1019.5
2023-02-03T12:57:22.943Z,1019.4
2023-02-03T12:58:22.942Z,1019.4
2023-02-03T12:59:22.935Z,1019.4
2023-02-03T13:00:22.932Z,1019.4
2023-02-03T13:01:23.064Z,1019.4
2023-02-03T13:02:22.981Z,1019.4
2023-02-03T13:03:22.937Z,1019.5
2023-02-03T13:06:22.946Z,1019.5
2023-02-03T13:08:22.939Z,1019.4
2023-02-03T13:09:22.950Z,1019.4
2023-02-03T13:11:22.941Z,1019.4
2023-02-03T13:13:22.974Z,1019.4
2023-02-03T13:14:22.973Z,1019.4
2023-02-03T13:15:22.954Z,1019.5
2023-02-03T13:17:22.941Z,1019.5
2023-02-03T13:18:22.942Z,1019.5
2023-02-03T13:19:22.954Z,1019.5
2023-02-03T13:20:22.941Z,1019.5
2023-02-03T13:21:22.943Z,1019.4
2023-02-03T13:22:22.938Z,1019.4
2023-02-03T13:23:22.946Z,1019.4
2023-02-03T13:24:22.944Z,1019.4
2023-02-03T13:25:22.944Z,1019.3
2023-02-03T13:26:22.948Z,1019.3
2023-02-03T13:27:22.937Z,1019.3
2023-02-03T13:28:22.937Z,1019.3
2023-02-03T13:29:22.951Z,1019.3
2023-02-03T13:34:22.950Z,1019.3
2023-02-03T13:37:33.229Z,1019.3
2023-02-03T13:38:22.938Z,1019.3
2023-02-03T13:40:22.947Z,1019.4
2023-02-03T13:41:22.937Z,1019.4
2023-02-03T13:42:22.936Z,1019.4
2023-02-03T13:43:36.846Z,1019.5
2023-02-03T13:44:22.973Z,1019.6
2023-02-03T13:45:22.936Z,1019.6
2023-02-03T13:46:23.099Z,1019.7
2023-02-03T13:48:22.941Z,1019.7
2023-02-03T13:49:23.004Z,1019.8
2023-02-03T13:54:22.945Z,1019.8
2023-02-03T14:00:33.222Z,1019.9
2023-02-03T14:01:22.946Z,1019.8
2023-02-03T14:02:22.942Z,1019.9
2023-02-03T14:03:22.947Z,1019.8
2023-02-03T14:04:22.999Z,1019.8
2023-02-03T14:05:22.946Z,1019.8
2023-02-03T14:06:22.940Z,1019.7
2023-02-03T14:07:22.935Z,1019.7
2023-02-03T14:08:22.938Z,1019.6
2023-02-03T14:09:22.966Z,1019.7
2023-02-03T14:10:22.944Z,1019.7
2023-02-03T14:11:22.955Z,1019.8
2023-02-03T14:12:22.949Z,1019.8
2023-02-03T14:13:22.944Z,1019.8
2023-02-03T14:14:22.942Z,1019.8
2023-02-03T14:15:22.943Z,1019.8
2023-02-03T14:17:22.945Z,1019.9
2023-02-03T14:18:22.964Z,1019.9
2023-02-03T14:19:22.934Z,1020
2023-02-03T14:20:22.958Z,1020
2023-02-03T14:21:22.945Z,1020
2023-02-03T14:22:22.993Z,1020.1
2023-02-03T14:23:22.946Z,1020.1
2023-02-03T14:24:22.950Z,1020.1